sensor_id;sensor_type;location;lat;lon;timestamp;P1;durP1;ratioP1;P2;durP2;ratioP2
74788;SDS011;63313;48.258;12.518;2023-02-03T00:04:25;8.879999999999999;;;3.41;;
74788;SDS011;63313;48.258;12.518;2023-02-03T00:09:52;7.08;;;3.07;;
74788;SDS011;63313;48.258;12.518;2023-02-03T00:15:20;5.73;;;3.0900000000000007;;
74788;SDS011;63313;48.258;12.518;2023-02-03T00:20:47;5.51;;;2.54;;
74788;SDS011;63313;48.258;12.518;2023-02-03T00:26:15;5.05;;;2.8899999999999997;;
74788;SDS011;63313;48.258;12.518;2023-02-03T00:31:43;6.9;;;2.72;;
74788;SDS011;63313;48.258;12.518;2023-02-03T00:37:11;4.89;;;2.3299999999999996;;
74788;SDS011;63313;48.258;12.518;2023-02-03T00:42:38;7.3199999999999985;;;3.0100000000000002;;
74788;SDS011;63313;48.258;12.518;2023-02-03T00:48:05;4.33;;;2.35;;
74788;SDS011;63313;48.258;12.518;2023-02-03T00:53:32;7.220000000000001;;;2.4300000000000006;;
74788;SDS011;63313;48.258;12.518;2023-02-03T00:58:59;6.9399999999999995;;;2.34;;
74788;SDS011;63313;48.258;12.518;2023-02-03T01:04:26;6.529999999999999;;;2.2700000000000005;;
74788;SDS011;63313;48.258;12.518;2023-02-03T01:09:53;7.859999999999999;;;2.06;;
74788;SDS011;63313;48.258;12.518;2023-02-03T01:15:20;5.06;;;2.17;;
74788;SDS011;63313;48.258;12.518;2023-02-03T01:20:47;6.710000000000001;;;2.64;;
74788;SDS011;63313;48.258;12.518;2023-02-03T01:26:15;8.34;;;1.9700000000000002;;
74788;SDS011;63313;48.258;12.518;2023-02-03T01:31:43;11.25;;;2.6400000000000006;;
74788;SDS011;63313;48.258;12.518;2023-02-03T01:37:10;9.09;;;2.66;;
74788;SDS011;63313;48.258;12.518;2023-02-03T01:42:37;5.3100000000000005;;;2.1399999999999997;;
74788;SDS011;63313;48.258;12.518;2023-02-03T01:48:04;8.959999999999999;;;2.74;;
74788;SDS011;63313;48.258;12.518;2023-02-03T01:53:31;3.22;;;2.05;;
74788;SDS011;63313;48.258;12.518;2023-02-03T01:58:59;7.979999999999999;;;2.3099999999999996;;
74788;SDS011;63313;48.258;12.518;2023-02-03T02:04:28;4.5;;;2.28;;
74788;SDS011;63313;48.258;12.518;2023-02-03T02:09:57;5.8;;;2.31;;
74788;SDS011;63313;48.258;12.518;2023-02-03T02:15:26;6.540000000000001;;;2.14;;
74788;SDS011;63313;48.258;12.518;2023-02-03T02:21:01;2.62;;;1.8399999999999999;;
74788;SDS011;63313;48.258;12.518;2023-02-03T02:26:36;3.7700000000000005;;;1.6300000000000001;;
74788;SDS011;63313;48.258;12.518;2023-02-03T02:32:05;4.26;;;1.9;;
74788;SDS011;63313;48.258;12.518;2023-02-03T02:37:37;4.66;;;1.9600000000000002;;
74788;SDS011;63313;48.258;12.518;2023-02-03T02:43:09;4.500000000000001;;;1.64;;
74788;SDS011;63313;48.258;12.518;2023-02-03T02:48:37;5.989999999999999;;;1.72;;
74788;SDS011;63313;48.258;12.518;2023-02-03T02:54:06;2.5300000000000002;;;1.67;;
74788;SDS011;63313;48.258;12.518;2023-02-03T02:59:34;5.96;;;1.9699999999999995;;
74788;SDS011;63313;48.258;12.518;2023-02-03T03:05:01;8.14;;;1.78;;
74788;SDS011;63313;48.258;12.518;2023-02-03T03:10:29;6.95;;;2.35;;
74788;SDS011;63313;48.258;12.518;2023-02-03T03:15:57;2.88;;;1.7400000000000002;;
74788;SDS011;63313;48.258;12.518;2023-02-03T03:21:27;5.119999999999999;;;1.8399999999999999;;
74788;SDS011;63313;48.258;12.518;2023-02-03T03:26:57;4.430000000000001;;;1.7100000000000002;;
74788;SDS011;63313;48.258;12.518;2023-02-03T03:32:28;2.4899999999999998;;;1.5799999999999996;;
74788;SDS011;63313;48.258;12.518;2023-02-03T03:37:56;1.8699999999999999;;;1.75;;
74788;SDS011;63313;48.258;12.518;2023-02-03T03:43:26;5.87;;;1.8;;
74788;SDS011;63313;48.258;12.518;2023-02-03T03:48:54;4.66;;;1.9;;
74788;SDS011;63313;48.258;12.518;2023-02-03T03:54:22;1.7100000000000002;;;1.25;;
74788;SDS011;63313;48.258;12.518;2023-02-03T03:59:50;4.46;;;1.47;;
74788;SDS011;63313;48.258;12.518;2023-02-03T04:05:18;2.1399999999999997;;;1.56;;
74788;SDS011;63313;48.258;12.518;2023-02-03T04:10:45;2.71;;;1.5399999999999998;;
74788;SDS011;63313;48.258;12.518;2023-02-03T04:16:12;6.359999999999999;;;1.8400000000000003;;
74788;SDS011;63313;48.258;12.518;2023-02-03T04:21:39;1.69;;;1.58;;
74788;SDS011;63313;48.258;12.518;2023-02-03T04:27:06;2.7;;;1.5899999999999999;;
74788;SDS011;63313;48.258;12.518;2023-02-03T04:32:34;3.13;;;1.5899999999999999;;
74788;SDS011;63313;48.258;12.518;2023-02-03T04:38:01;9.74;;;1.9500000000000004;;
74788;SDS011;63313;48.258;12.518;2023-02-03T04:43:28;1.75;;;1.4300000000000002;;
74788;SDS011;63313;48.258;12.518;2023-02-03T04:48:55;2.7800000000000002;;;1.3399999999999999;;
74788;SDS011;63313;48.258;12.518;2023-02-03T04:54:22;1.8399999999999999;;;1.55;;
74788;SDS011;63313;48.258;12.518;2023-02-03T04:59:49;1.31;;;1.2800000000000002;;
74788;SDS011;63313;48.258;12.518;2023-02-03T05:05:16;1.35;;;1.28;;
74788;SDS011;63313;48.258;12.518;2023-02-03T05:10:43;5.24;;;1.8000000000000003;;
74788;SDS011;63313;48.258;12.518;2023-02-03T05:16:10;2.1800000000000006;;;1.4600000000000002;;
74788;SDS011;63313;48.258;12.518;2023-02-03T05:21:37;1.6300000000000001;;;1.3599999999999999;;
74788;SDS011;63313;48.258;12.518;2023-02-03T05:27:04;3.6700000000000004;;;1.1700000000000002;;
74788;SDS011;63313;48.258;12.518;2023-02-03T05:32:31;2.63;;;1.3699999999999999;;
74788;SDS011;63313;48.258;12.518;2023-02-03T05:37:58;4.6000000000000005;;;1.8599999999999999;;
74788;SDS011;63313;48.258;12.518;2023-02-03T05:43:26;3.3600000000000003;;;1.3900000000000001;;
74788;SDS011;63313;48.258;12.518;2023-02-03T05:48:53;1.6199999999999999;;;1.2800000000000002;;
74788;SDS011;63313;48.258;12.518;2023-02-03T05:54:20;2.77;;;1.33;;
74788;SDS011;63313;48.258;12.518;2023-02-03T05:59:47;3.3199999999999994;;;1.27;;
74788;SDS011;63313;48.258;12.518;2023-02-03T06:05:14;2.42;;;1.3699999999999999;;
74788;SDS011;63313;48.258;12.518;2023-02-03T06:10:41;2.58;;;1.0899999999999999;;
74788;SDS011;63313;48.258;12.518;2023-02-03T06:16:08;3.65;;;1.6099999999999999;;
74788;SDS011;63313;48.258;12.518;2023-02-03T06:21:35;2.61;;;1.25;;
74788;SDS011;63313;48.258;12.518;2023-02-03T06:27:02;2.7800000000000002;;;1.58;;
74788;SDS011;63313;48.258;12.518;2023-02-03T06:32:29;4.83;;;1.45;;
74788;SDS011;63313;48.258;12.518;2023-02-03T06:37:56;1.39;;;1.15;;
74788;SDS011;63313;48.258;12.518;2023-02-03T06:43:24;2.5300000000000002;;;1.48;;
74788;SDS011;63313;48.258;12.518;2023-02-03T06:48:51;4.53;;;1.44;;
74788;SDS011;63313;48.258;12.518;2023-02-03T06:54:18;2.9400000000000004;;;1.43;;
74788;SDS011;63313;48.258;12.518;2023-02-03T06:59:45;3.22;;;1.3800000000000003;;
74788;SDS011;63313;48.258;12.518;2023-02-03T07:05:12;3.0599999999999996;;;1.1199999999999999;;
74788;SDS011;63313;48.258;12.518;2023-02-03T07:10:39;5.76;;;1.3799999999999997;;
74788;SDS011;63313;48.258;12.518;2023-02-03T07:16:06;3.9899999999999998;;;1.0999999999999999;;
74788;SDS011;63313;48.258;12.518;2023-02-03T07:21:33;2.54;;;0.97;;
74788;SDS011;63313;48.258;12.518;2023-02-03T07:27:00;3.8300000000000005;;;1.2200000000000002;;
74788;SDS011;63313;48.258;12.518;2023-02-03T07:32:27;1.92;;;0.9099999999999999;;
74788;SDS011;63313;48.258;12.518;2023-02-03T07:37:54;2.79;;;1.02;;
74788;SDS011;63313;48.258;12.518;2023-02-03T07:43:21;4.359999999999999;;;1.04;;
74788;SDS011;63313;48.258;12.518;2023-02-03T07:48:49;1.4300000000000002;;;0.93;;
74788;SDS011;63313;48.258;12.518;2023-02-03T07:54:16;1.9799999999999998;;;1.0;;
74788;SDS011;63313;48.258;12.518;2023-02-03T07:59:43;5.26;;;1.0799999999999998;;
74788;SDS011;63313;48.258;12.518;2023-02-03T08:05:10;1.48;;;0.8699999999999999;;
74788;SDS011;63313;48.258;12.518;2023-02-03T08:10:38;1.58;;;1.1799999999999997;;
74788;SDS011;63313;48.258;12.518;2023-02-03T08:16:05;3.8900000000000006;;;1.05;;
74788;SDS011;63313;48.258;12.518;2023-02-03T08:21:32;2.95;;;0.9400000000000001;;
74788;SDS011;63313;48.258;12.518;2023-02-03T08:26:59;4.87;;;1.03;;
74788;SDS011;63313;48.258;12.518;2023-02-03T08:32:27;3.14;;;1.05;;
74788;SDS011;63313;48.258;12.518;2023-02-03T08:37:54;1.7600000000000002;;;1.05;;
74788;SDS011;63313;48.258;12.518;2023-02-03T08:43:21;3.0900000000000003;;;0.86;;
74788;SDS011;63313;48.258;12.518;2023-02-03T08:48:48;2.98;;;0.8600000000000001;;
74788;SDS011;63313;48.258;12.518;2023-02-03T08:54:15;1.73;;;0.8099999999999999;;
74788;SDS011;63313;48.258;12.518;2023-02-03T08:59:42;3.3200000000000003;;;1.15;;
74788;SDS011;63313;48.258;12.518;2023-02-03T09:05:09;2.58;;;0.9100000000000001;;
74788;SDS011;63313;48.258;12.518;2023-02-03T09:10:36;2.0;;;0.95;;
74788;SDS011;63313;48.258;12.518;2023-02-03T09:16:04;3.69;;;1.2;;
74788;SDS011;63313;48.258;12.518;2023-02-03T09:21:31;2.55;;;0.9400000000000001;;
74788;SDS011;63313;48.258;12.518;2023-02-03T09:26:58;1.2499999999999998;;;0.8;;
74788;SDS011;63313;48.258;12.518;2023-02-03T09:32:25;1.8;;;1.51;;
74788;SDS011;63313;48.258;12.518;2023-02-03T09:37:53;1.9300000000000002;;;0.78;;
74788;SDS011;63313;48.258;12.518;2023-02-03T09:43:24;0.9400000000000001;;;0.78;;
74788;SDS011;63313;48.258;12.518;2023-02-03T09:48:56;0.9400000000000001;;;0.79;;
74788;SDS011;63313;48.258;12.518;2023-02-03T09:54:25;1.6199999999999999;;;0.97;;
74788;SDS011;63313;48.258;12.518;2023-02-03T09:59:54;1.81;;;0.95;;
74788;SDS011;63313;48.258;12.518;2023-02-03T10:05:24;2.79;;;0.9400000000000001;;
74788;SDS011;63313;48.258;12.518;2023-02-03T10:10:55;2.6900000000000004;;;0.95;;
74788;SDS011;63313;48.258;12.518;2023-02-03T10:16:28;2.25;;;1.18;;
74788;SDS011;63313;48.258;12.518;2023-02-03T10:21:57;2.6;;;0.8099999999999999;;
74788;SDS011;63313;48.258;12.518;2023-02-03T10:27:25;3.94;;;1.22;;
74788;SDS011;63313;48.258;12.518;2023-02-03T10:32:54;1.9600000000000002;;;0.9099999999999999;;
74788;SDS011;63313;48.258;12.518;2023-02-03T10:38:25;2.4899999999999998;;;0.78;;
74788;SDS011;63313;48.258;12.518;2023-02-03T10:43:55;1.8699999999999999;;;0.7699999999999999;;
74788;SDS011;63313;48.258;12.518;2023-02-03T10:49:22;1.24;;;0.8700000000000001;;
74788;SDS011;63313;48.258;12.518;2023-02-03T10:54:52;0.8;;;0.8;;
74788;SDS011;63313;48.258;12.518;2023-02-03T11:00:21;1.7399999999999998;;;0.6699999999999999;;
74788;SDS011;63313;48.258;12.518;2023-02-03T11:06:00;0.71;;;0.71;;
74788;SDS011;63313;48.258;12.518;2023-02-03T11:11:29;2.5100000000000002;;;0.96;;
74788;SDS011;63313;48.258;12.518;2023-02-03T11:16:56;2.7399999999999993;;;0.8200000000000001;;
74788;SDS011;63313;48.258;12.518;2023-02-03T11:22:31;2.63;;;0.93;;
74788;SDS011;63313;48.258;12.518;2023-02-03T11:28:02;1.24;;;0.8400000000000001;;
74788;SDS011;63313;48.258;12.518;2023-02-03T11:33:30;1.02;;;0.93;;
74788;SDS011;63313;48.258;12.518;2023-02-03T11:39:30;0.78;;;0.78;;
74788;SDS011;63313;48.258;12.518;2023-02-03T11:45:06;1.7899999999999998;;;0.8300000000000001;;
74788;SDS011;63313;48.258;12.518;2023-02-03T11:50:39;0.96;;;0.89;;
74788;SDS011;63313;48.258;12.518;2023-02-03T11:56:13;0.75;;;0.74;;
74788;SDS011;63313;48.258;12.518;2023-02-03T12:01:50;2.0000000000000004;;;1.0799999999999998;;
74788;SDS011;63313;48.258;12.518;2023-02-03T12:07:25;1.69;;;1.33;;
74788;SDS011;63313;48.258;12.518;2023-02-03T12:12:56;2.4699999999999998;;;0.8699999999999999;;
74788;SDS011;63313;48.258;12.518;2023-02-03T12:18:29;2.7;;;1.1;;
74788;SDS011;63313;48.258;12.518;2023-02-03T12:23:59;1.1099999999999999;;;0.96;;
74788;SDS011;63313;48.258;12.518;2023-02-03T12:29:31;1.12;;;0.9299999999999999;;
74788;SDS011;63313;48.258;12.518;2023-02-03T12:35:00;0.7299999999999999;;;0.7299999999999999;;
74788;SDS011;63313;48.258;12.518;2023-02-03T12:40:28;1.69;;;0.8200000000000001;;
74788;SDS011;63313;48.258;12.518;2023-02-03T12:45:59;1.6400000000000001;;;0.7;;
74788;SDS011;63313;48.258;12.518;2023-02-03T12:51:30;2.41;;;0.9100000000000001;;
74788;SDS011;63313;48.258;12.518;2023-02-03T12:56:59;2.21;;;1.2399999999999998;;
74788;SDS011;63313;48.258;12.518;2023-02-03T13:02:31;2.86;;;1.06;;
74788;SDS011;63313;48.258;12.518;2023-02-03T13:08:04;0.6300000000000001;;;0.6300000000000001;;
74788;SDS011;63313;48.258;12.518;2023-02-03T13:13:34;2.16;;;0.85;;
74788;SDS011;63313;48.258;12.518;2023-02-03T13:19:02;4.5600000000000005;;;0.9100000000000001;;
74788;SDS011;63313;48.258;12.518;2023-02-03T13:24:32;0.76;;;0.76;;
74788;SDS011;63313;48.258;12.518;2023-02-03T13:30:03;0.75;;;0.7;;
74788;SDS011;63313;48.258;12.518;2023-02-03T13:35:37;0.9799999999999999;;;0.93;;
74788;SDS011;63313;48.258;12.518;2023-02-03T13:41:14;1.5099999999999998;;;1.14;;
74788;SDS011;63313;48.258;12.518;2023-02-03T13:46:45;1.45;;;0.9099999999999999;;
74788;SDS011;63313;48.258;12.518;2023-02-03T13:52:29;0.9200000000000002;;;0.8600000000000001;;
74788;SDS011;63313;48.258;12.518;2023-02-03T13:57:56;3.54;;;0.8400000000000002;;
74788;SDS011;63313;48.258;12.518;2023-02-03T14:03:39;1.8699999999999999;;;0.9700000000000001;;
74788;SDS011;63313;48.258;12.518;2023-02-03T14:09:17;1.38;;;1.19;;
74788;SDS011;63313;48.258;12.518;2023-02-03T14:15:14;1.4;;;0.77;;
74788;SDS011;63313;48.258;12.518;2023-02-03T14:20:47;1.2200000000000002;;;0.85;;
74788;SDS011;63313;48.258;12.518;2023-02-03T14:26:17;1.43;;;0.8600000000000001;;
74788;SDS011;63313;48.258;12.518;2023-02-03T14:31:53;1.85;;;0.7;;
74788;SDS011;63313;48.258;12.518;2023-02-03T14:37:22;1.8099999999999998;;;0.89;;
74788;SDS011;63313;48.258;12.518;2023-02-03T14:43:01;1.3299999999999998;;;1.11;;
74788;SDS011;63313;48.258;12.518;2023-02-03T14:48:35;1.0399999999999998;;;0.8600000000000001;;
74788;SDS011;63313;48.258;12.518;2023-02-03T14:54:11;2.68;;;0.96;;
74788;SDS011;63313;48.258;12.518;2023-02-03T14:59:41;0.8100000000000002;;;0.8;;
74788;SDS011;63313;48.258;12.518;2023-02-03T15:05:42;3.3400000000000007;;;0.9199999999999999;;
74788;SDS011;63313;48.258;12.518;2023-02-03T15:11:27;1.81;;;0.8;;
74788;SDS011;63313;48.258;12.518;2023-02-03T15:16:56;1.5799999999999998;;;0.9400000000000001;;
74788;SDS011;63313;48.258;12.518;2023-02-03T15:22:24;1.56;;;0.8300000000000001;;
74788;SDS011;63313;48.258;12.518;2023-02-03T15:27:52;3.1100000000000003;;;0.95;;
74788;SDS011;63313;48.258;12.518;2023-02-03T15:33:19;1.53;;;0.75;;
74788;SDS011;63313;48.258;12.518;2023-02-03T15:38:47;6.44;;;0.99;;
74788;SDS011;63313;48.258;12.518;2023-02-03T15:44:20;2.61;;;0.8300000000000001;;
74788;SDS011;63313;48.258;12.518;2023-02-03T15:49:50;0.8400000000000001;;;0.8400000000000001;;
74788;SDS011;63313;48.258;12.518;2023-02-03T15:55:34;1.0;;;0.85;;
74788;SDS011;63313;48.258;12.518;2023-02-03T16:01:04;1.4500000000000002;;;0.72;;
74788;SDS011;63313;48.258;12.518;2023-02-03T16:06:32;1.6800000000000002;;;0.8;;
74788;SDS011;63313;48.258;12.518;2023-02-03T16:12:01;3.7700000000000005;;;0.7300000000000001;;
74788;SDS011;63313;48.258;12.518;2023-02-03T16:17:29;2.11;;;0.9100000000000001;;
74788;SDS011;63313;48.258;12.518;2023-02-03T16:22:59;2.46;;;1.13;;
74788;SDS011;63313;48.258;12.518;2023-02-03T16:28:26;1.9700000000000002;;;0.79;;
74788;SDS011;63313;48.258;12.518;2023-02-03T16:33:54;5.73;;;0.9400000000000001;;
74788;SDS011;63313;48.258;12.518;2023-02-03T16:39:21;2.78;;;0.9200000000000002;;
74788;SDS011;63313;48.258;12.518;2023-02-03T16:44:48;1.0299999999999998;;;1.0;;
74788;SDS011;63313;48.258;12.518;2023-02-03T16:50:16;2.21;;;1.1;;
74788;SDS011;63313;48.258;12.518;2023-02-03T16:55:43;1.6800000000000002;;;1.28;;
74788;SDS011;63313;48.258;12.518;2023-02-03T17:01:11;2.15;;;1.06;;
74788;SDS011;63313;48.258;12.518;2023-02-03T17:06:38;1.16;;;1.08;;
74788;SDS011;63313;48.258;12.518;2023-02-03T17:12:06;2.88;;;1.11;;
74788;SDS011;63313;48.258;12.518;2023-02-03T17:17:33;2.7;;;1.14;;
74788;SDS011;63313;48.258;12.518;2023-02-03T17:23:00;4.18;;;1.1099999999999999;;
74788;SDS011;63313;48.258;12.518;2023-02-03T17:28:27;2.88;;;1.1199999999999999;;
74788;SDS011;63313;48.258;12.518;2023-02-03T17:33:54;1.3900000000000001;;;0.95;;
74788;SDS011;63313;48.258;12.518;2023-02-03T17:39:21;2.2;;;1.23;;
74788;SDS011;63313;48.258;12.518;2023-02-03T17:44:48;0.96;;;0.96;;
74788;SDS011;63313;48.258;12.518;2023-02-03T17:50:15;0.99;;;0.99;;
74788;SDS011;63313;48.258;12.518;2023-02-03T17:55:43;1.7900000000000003;;;1.0699999999999998;;
74788;SDS011;63313;48.258;12.518;2023-02-03T18:01:11;1.61;;;1.13;;
74788;SDS011;63313;48.258;12.518;2023-02-03T18:06:39;1.2000000000000002;;;1.02;;
74788;SDS011;63313;48.258;12.518;2023-02-03T18:12:06;0.8899999999999999;;;0.8799999999999999;;
74788;SDS011;63313;48.258;12.518;2023-02-03T18:17:33;1.23;;;0.9;;
74788;SDS011;63313;48.258;12.518;2023-02-03T18:23:00;1.18;;;1.0899999999999999;;
74788;SDS011;63313;48.258;12.518;2023-02-03T18:28:27;1.3599999999999999;;;0.9400000000000001;;
74788;SDS011;63313;48.258;12.518;2023-02-03T18:33:55;0.8;;;0.7700000000000001;;
74788;SDS011;63313;48.258;12.518;2023-02-03T18:39:22;1.0699999999999998;;;1.0;;
74788;SDS011;63313;48.258;12.518;2023-02-03T18:44:49;1.15;;;0.9799999999999999;;
74788;SDS011;63313;48.258;12.518;2023-02-03T18:50:16;0.85;;;0.8;;
74788;SDS011;63313;48.258;12.518;2023-02-03T18:55:43;1.1;;;0.95;;
74788;SDS011;63313;48.258;12.518;2023-02-03T19:01:18;1.1400000000000001;;;1.01;;
74788;SDS011;63313;48.258;12.518;2023-02-03T19:06:46;1.1;;;0.6599999999999999;;
74788;SDS011;63313;48.258;12.518;2023-02-03T19:12:13;1.05;;;1.0;;
74788;SDS011;63313;48.258;12.518;2023-02-03T19:17:40;1.0899999999999999;;;0.9200000000000002;;
74788;SDS011;63313;48.258;12.518;2023-02-03T19:23:07;3.04;;;0.9999999999999998;;
74788;SDS011;63313;48.258;12.518;2023-02-03T19:28:34;0.96;;;0.96;;
74788;SDS011;63313;48.258;12.518;2023-02-03T19:34:01;1.06;;;0.97;;
74788;SDS011;63313;48.258;12.518;2023-02-03T19:39:28;2.23;;;1.1;;
74788;SDS011;63313;48.258;12.518;2023-02-03T19:44:55;1.17;;;1.1199999999999999;;
74788;SDS011;63313;48.258;12.518;2023-02-03T19:50:22;0.8800000000000001;;;0.8800000000000001;;
74788;SDS011;63313;48.258;12.518;2023-02-03T19:55:50;1.9599999999999997;;;0.9800000000000001;;
74788;SDS011;63313;48.258;12.518;2023-02-03T20:01:17;1.24;;;0.9;;
74788;SDS011;63313;48.258;12.518;2023-02-03T20:06:44;1.83;;;0.9000000000000001;;
74788;SDS011;63313;48.258;12.518;2023-02-03T20:12:11;1.15;;;1.0699999999999998;;
74788;SDS011;63313;48.258;12.518;2023-02-03T20:17:38;0.96;;;0.8200000000000001;;
74788;SDS011;63313;48.258;12.518;2023-02-03T20:23:05;0.95;;;0.73;;
74788;SDS011;63313;48.258;12.518;2023-02-03T20:28:32;1.01;;;0.9400000000000001;;
74788;SDS011;63313;48.258;12.518;2023-02-03T20:33:59;1.15;;;0.99;;
74788;SDS011;63313;48.258;12.518;2023-02-03T20:39:27;1.69;;;1.35;;
74788;SDS011;63313;48.258;12.518;2023-02-03T20:44:54;1.43;;;1.02;;
74788;SDS011;63313;48.258;12.518;2023-02-03T20:50:22;2.61;;;1.23;;
74788;SDS011;63313;48.258;12.518;2023-02-03T20:55:49;2.78;;;1.65;;
74788;SDS011;63313;48.258;12.518;2023-02-03T21:01:17;1.67;;;1.47;;
74788;SDS011;63313;48.258;12.518;2023-02-03T21:06:44;3.1900000000000004;;;1.3699999999999999;;
74788;SDS011;63313;48.258;12.518;2023-02-03T21:12:11;1.6300000000000001;;;1.52;;
74788;SDS011;63313;48.258;12.518;2023-02-03T21:17:39;1.59;;;1.49;;
74788;SDS011;63313;48.258;12.518;2023-02-03T21:23:08;2.06;;;1.56;;
74788;SDS011;63313;48.258;12.518;2023-02-03T21:28:36;1.52;;;1.1500000000000001;;
74788;SDS011;63313;48.258;12.518;2023-02-03T21:34:09;2.19;;;1.2700000000000002;;
74788;SDS011;63313;48.258;12.518;2023-02-03T21:39:40;1.5;;;1.33;;
74788;SDS011;63313;48.258;12.518;2023-02-03T21:45:21;1.6600000000000001;;;1.41;;
74788;SDS011;63313;48.258;12.518;2023-02-03T21:50:48;1.8999999999999997;;;1.7400000000000002;;
74788;SDS011;63313;48.258;12.518;2023-02-03T21:56:17;1.8900000000000001;;;1.7;;
74788;SDS011;63313;48.258;12.518;2023-02-03T22:01:44;2.25;;;1.5999999999999999;;
74788;SDS011;63313;48.258;12.518;2023-02-03T22:07:12;1.67;;;1.5699999999999998;;
74788;SDS011;63313;48.258;12.518;2023-02-03T22:12:39;2.37;;;1.4400000000000002;;
74788;SDS011;63313;48.258;12.518;2023-02-03T22:18:07;2.5000000000000004;;;1.5;;
74788;SDS011;63313;48.258;12.518;2023-02-03T22:23:34;2.2;;;1.6400000000000001;;
74788;SDS011;63313;48.258;12.518;2023-02-03T22:29:01;2.27;;;1.48;;
74788;SDS011;63313;48.258;12.518;2023-02-03T22:34:28;1.3399999999999999;;;1.2400000000000002;;
74788;SDS011;63313;48.258;12.518;2023-02-03T22:39:55;1.4;;;1.28;;
74788;SDS011;63313;48.258;12.518;2023-02-03T22:45:22;1.2899999999999998;;;1.2600000000000002;;
74788;SDS011;63313;48.258;12.518;2023-02-03T22:50:49;1.5899999999999999;;;1.5;;
74788;SDS011;63313;48.258;12.518;2023-02-03T22:56:16;2.2600000000000002;;;1.35;;
74788;SDS011;63313;48.258;12.518;2023-02-03T23:01:43;1.32;;;1.2100000000000002;;
74788;SDS011;63313;48.258;12.518;2023-02-03T23:07:10;2.6799999999999997;;;1.59;;
74788;SDS011;63313;48.258;12.518;2023-02-03T23:12:37;4.210000000000001;;;1.4;;
74788;SDS011;63313;48.258;12.518;2023-02-03T23:18:04;1.49;;;1.35;;
74788;SDS011;63313;48.258;12.518;2023-02-03T23:23:31;2.1999999999999997;;;1.6300000000000001;;
74788;SDS011;63313;48.258;12.518;2023-02-03T23:28:59;1.1600000000000001;;;1.11;;
74788;SDS011;63313;48.258;12.518;2023-02-03T23:34:26;1.56;;;0.85;;
74788;SDS011;63313;48.258;12.518;2023-02-03T23:39:53;0.8100000000000002;;;0.67;;
74788;SDS011;63313;48.258;12.518;2023-02-03T23:45:20;0.5999999999999999;;;0.5999999999999999;;
74788;SDS011;63313;48.258;12.518;2023-02-03T23:50:47;0.64;;;0.61;;
74788;SDS011;63313;48.258;12.518;2023-02-03T23:56:14;1.19;;;1.01;;
